sensor_id;sensor_type;location;lat;lon;timestamp;temperature;humidity
15765;DHT22;7983;50.744;7.086;2022-09-30T00:01:22;10.30;99.90
15765;DHT22;7983;50.744;7.086;2022-09-30T00:03:53;10.30;99.90
15765;DHT22;7983;50.744;7.086;2022-09-30T00:06:24;10.20;99.90
15765;DHT22;7983;50.744;7.086;2022-09-30T00:08:53;10.20;99.90
15765;DHT22;7983;50.744;7.086;2022-09-30T00:11:22;10.20;99.90
15765;DHT22;7983;50.744;7.086;2022-09-30T00:13:52;10.20;99.90
15765;DHT22;7983;50.744;7.086;2022-09-30T00:16:21;10.10;99.90
15765;DHT22;7983;50.744;7.086;2022-09-30T00:18:47;10.10;99.90
15765;DHT22;7983;50.744;7.086;2022-09-30T00:21:14;10.10;99.90
15765;DHT22;7983;50.744;7.086;2022-09-30T00:23:42;10.10;99.90
15765;DHT22;7983;50.744;7.086;2022-09-30T00:26:11;10.00;99.90
15765;DHT22;7983;50.744;7.086;2022-09-30T00:28:39;10.00;99.90
15765;DHT22;7983;50.744;7.086;2022-09-30T00:31:08;10.00;99.90
15765;DHT22;7983;50.744;7.086;2022-09-30T00:33:36;10.00;99.90
15765;DHT22;7983;50.744;7.086;2022-09-30T00:36:05;10.00;99.90
15765;DHT22;7983;50.744;7.086;2022-09-30T00:38:33;9.90;99.90
15765;DHT22;7983;50.744;7.086;2022-09-30T00:41:02;9.90;99.90
15765;DHT22;7983;50.744;7.086;2022-09-30T00:43:47;9.90;99.90
15765;DHT22;7983;50.744;7.086;2022-09-30T00:46:25;9.90;99.90
15765;DHT22;7983;50.744;7.086;2022-09-30T00:48:53;9.80;99.90
15765;DHT22;7983;50.744;7.086;2022-09-30T00:51:31;9.80;99.90
15765;DHT22;7983;50.744;7.086;2022-09-30T00:54:06;9.70;99.90
15765;DHT22;7983;50.744;7.086;2022-09-30T00:56:41;9.80;99.90
15765;DHT22;7983;50.744;7.086;2022-09-30T00:59:15;9.70;99.90
15765;DHT22;7983;50.744;7.086;2022-09-30T01:01:43;9.70;99.90
15765;DHT22;7983;50.744;7.086;2022-09-30T01:04:14;9.60;99.90
15765;DHT22;7983;50.744;7.086;2022-09-30T01:06:41;9.60;99.90
15765;DHT22;7983;50.744;7.086;2022-09-30T01:09:09;9.60;99.90
15765;DHT22;7983;50.744;7.086;2022-09-30T01:11:34;9.50;99.90
15765;DHT22;7983;50.744;7.086;2022-09-30T01:14:06;9.50;99.90
15765;DHT22;7983;50.744;7.086;2022-09-30T01:22:30;9.40;99.90
15765;DHT22;7983;50.744;7.086;2022-09-30T01:34:02;9.30;99.90
15765;DHT22;7983;50.744;7.086;2022-09-30T01:36:46;9.30;99.90
15765;DHT22;7983;50.744;7.086;2022-09-30T01:42:17;9.30;99.90
15765;DHT22;7983;50.744;7.086;2022-09-30T01:45:00;9.20;99.90
15765;DHT22;7983;50.744;7.086;2022-09-30T01:50:19;9.20;99.90
15765;DHT22;7983;50.744;7.086;2022-09-30T01:53:08;9.20;99.90
15765;DHT22;7983;50.744;7.086;2022-09-30T01:56:03;9.10;99.90
15765;DHT22;7983;50.744;7.086;2022-09-30T02:01:31;9.10;99.90
15765;DHT22;7983;50.744;7.086;2022-09-30T02:04:06;9.10;99.90
15765;DHT22;7983;50.744;7.086;2022-09-30T02:06:40;9.00;99.90
15765;DHT22;7983;50.744;7.086;2022-09-30T02:09:19;9.00;99.90
15765;DHT22;7983;50.744;7.086;2022-09-30T02:11:50;9.00;99.90
15765;DHT22;7983;50.744;7.086;2022-09-30T02:14:31;9.00;99.90
15765;DHT22;7983;50.744;7.086;2022-09-30T02:22:14;8.90;99.90
15765;DHT22;7983;50.744;7.086;2022-09-30T02:24:41;8.90;99.90
15765;DHT22;7983;50.744;7.086;2022-09-30T02:27:23;9.00;99.90
15765;DHT22;7983;50.744;7.086;2022-09-30T02:29:54;8.90;99.90
15765;DHT22;7983;50.744;7.086;2022-09-30T02:32:26;8.80;99.90
15765;DHT22;7983;50.744;7.086;2022-09-30T02:35:16;8.80;99.90
15765;DHT22;7983;50.744;7.086;2022-09-30T02:37:49;8.80;99.90
15765;DHT22;7983;50.744;7.086;2022-09-30T02:40:27;8.80;99.90
15765;DHT22;7983;50.744;7.086;2022-09-30T02:42:54;8.80;99.90
15765;DHT22;7983;50.744;7.086;2022-09-30T02:45:21;8.70;99.90
15765;DHT22;7983;50.744;7.086;2022-09-30T02:55:45;8.70;99.90
15765;DHT22;7983;50.744;7.086;2022-09-30T02:58:22;8.70;99.90
15765;DHT22;7983;50.744;7.086;2022-09-30T03:00:53;8.70;99.90
15765;DHT22;7983;50.744;7.086;2022-09-30T03:03:49;8.60;99.90
15765;DHT22;7983;50.744;7.086;2022-09-30T03:06:16;8.60;99.90
15765;DHT22;7983;50.744;7.086;2022-09-30T03:08:42;8.60;99.90
15765;DHT22;7983;50.744;7.086;2022-09-30T03:11:14;8.60;99.90
15765;DHT22;7983;50.744;7.086;2022-09-30T03:19:09;8.50;99.90
15765;DHT22;7983;50.744;7.086;2022-09-30T03:30:04;8.40;99.90
15765;DHT22;7983;50.744;7.086;2022-09-30T03:32:47;8.40;99.90
15765;DHT22;7983;50.744;7.086;2022-09-30T03:46:25;8.30;99.90
15765;DHT22;7983;50.744;7.086;2022-09-30T03:48:56;8.30;99.90
15765;DHT22;7983;50.744;7.086;2022-09-30T03:51:23;8.30;99.90
15765;DHT22;7983;50.744;7.086;2022-09-30T03:53:54;8.30;99.90
15765;DHT22;7983;50.744;7.086;2022-09-30T03:56:25;8.20;99.90
15765;DHT22;7983;50.744;7.086;2022-09-30T03:58:54;8.20;99.90
15765;DHT22;7983;50.744;7.086;2022-09-30T04:01:21;8.20;99.90
15765;DHT22;7983;50.744;7.086;2022-09-30T04:03:48;8.20;99.90
15765;DHT22;7983;50.744;7.086;2022-09-30T04:06:17;8.10;99.90
15765;DHT22;7983;50.744;7.086;2022-09-30T04:08:43;8.10;99.90
15765;DHT22;7983;50.744;7.086;2022-09-30T04:11:11;8.10;99.90
15765;DHT22;7983;50.744;7.086;2022-09-30T04:13:37;8.10;99.90
15765;DHT22;7983;50.744;7.086;2022-09-30T04:16:04;8.10;99.90
15765;DHT22;7983;50.744;7.086;2022-09-30T04:18:30;8.10;99.90
15765;DHT22;7983;50.744;7.086;2022-09-30T04:20:58;8.10;99.90
15765;DHT22;7983;50.744;7.086;2022-09-30T04:23:26;8.10;99.90
15765;DHT22;7983;50.744;7.086;2022-09-30T04:25:53;8.00;99.90
15765;DHT22;7983;50.744;7.086;2022-09-30T04:28:19;8.00;99.90
15765;DHT22;7983;50.744;7.086;2022-09-30T04:30:47;8.10;99.90
15765;DHT22;7983;50.744;7.086;2022-09-30T04:33:13;8.00;99.90
15765;DHT22;7983;50.744;7.086;2022-09-30T04:35:39;8.00;99.90
15765;DHT22;7983;50.744;7.086;2022-09-30T04:38:07;8.00;99.90
15765;DHT22;7983;50.744;7.086;2022-09-30T04:40:36;8.00;99.90
15765;DHT22;7983;50.744;7.086;2022-09-30T04:43:04;8.00;99.90
15765;DHT22;7983;50.744;7.086;2022-09-30T04:45:30;8.10;99.90
15765;DHT22;7983;50.744;7.086;2022-09-30T04:47:56;8.00;99.90
15765;DHT22;7983;50.744;7.086;2022-09-30T04:50:21;8.00;99.90
15765;DHT22;7983;50.744;7.086;2022-09-30T04:52:47;8.00;99.90
15765;DHT22;7983;50.744;7.086;2022-09-30T04:55:15;8.00;99.90
15765;DHT22;7983;50.744;7.086;2022-09-30T04:57:44;8.00;99.90
15765;DHT22;7983;50.744;7.086;2022-09-30T05:00:10;8.00;99.90
15765;DHT22;7983;50.744;7.086;2022-09-30T05:02:36;7.90;99.90
15765;DHT22;7983;50.744;7.086;2022-09-30T05:05:02;7.90;99.90
15765;DHT22;7983;50.744;7.086;2022-09-30T05:07:31;7.90;99.90
15765;DHT22;7983;50.744;7.086;2022-09-30T05:09:57;7.90;99.90
15765;DHT22;7983;50.744;7.086;2022-09-30T05:12:25;7.80;99.90
15765;DHT22;7983;50.744;7.086;2022-09-30T05:14:53;7.90;99.90
15765;DHT22;7983;50.744;7.086;2022-09-30T05:17:21;7.90;99.90
15765;DHT22;7983;50.744;7.086;2022-09-30T05:19:49;7.80;99.90
15765;DHT22;7983;50.744;7.086;2022-09-30T05:22:17;7.80;99.90
15765;DHT22;7983;50.744;7.086;2022-09-30T05:24:43;7.80;99.90
15765;DHT22;7983;50.744;7.086;2022-09-30T05:27:08;7.90;99.90
15765;DHT22;7983;50.744;7.086;2022-09-30T05:29:38;7.90;99.90
15765;DHT22;7983;50.744;7.086;2022-09-30T05:32:04;7.80;99.90
15765;DHT22;7983;50.744;7.086;2022-09-30T05:34:32;7.80;99.90
15765;DHT22;7983;50.744;7.086;2022-09-30T05:37:01;7.80;99.90
15765;DHT22;7983;50.744;7.086;2022-09-30T05:39:31;7.80;99.90
15765;DHT22;7983;50.744;7.086;2022-09-30T05:41:58;7.80;99.90
15765;DHT22;7983;50.744;7.086;2022-09-30T05:44:25;7.80;99.90
15765;DHT22;7983;50.744;7.086;2022-09-30T05:46:51;7.80;99.90
15765;DHT22;7983;50.744;7.086;2022-09-30T05:49:19;7.80;99.90
15765;DHT22;7983;50.744;7.086;2022-09-30T05:51:48;7.70;99.90
15765;DHT22;7983;50.744;7.086;2022-09-30T05:54:16;7.70;99.90
15765;DHT22;7983;50.744;7.086;2022-09-30T05:56:44;7.80;99.90
15765;DHT22;7983;50.744;7.086;2022-09-30T05:59:10;7.80;99.90
15765;DHT22;7983;50.744;7.086;2022-09-30T06:01:38;7.80;99.90
15765;DHT22;7983;50.744;7.086;2022-09-30T06:04:04;7.80;99.90
15765;DHT22;7983;50.744;7.086;2022-09-30T06:06:29;7.80;99.90
15765;DHT22;7983;50.744;7.086;2022-09-30T06:08:55;7.80;99.90
15765;DHT22;7983;50.744;7.086;2022-09-30T06:11:21;7.70;99.90
15765;DHT22;7983;50.744;7.086;2022-09-30T06:13:52;7.70;99.90
15765;DHT22;7983;50.744;7.086;2022-09-30T06:16:18;7.70;99.90
15765;DHT22;7983;50.744;7.086;2022-09-30T06:18:44;7.70;99.90
15765;DHT22;7983;50.744;7.086;2022-09-30T06:21:12;7.70;99.90
15765;DHT22;7983;50.744;7.086;2022-09-30T06:23:38;7.70;99.90
15765;DHT22;7983;50.744;7.086;2022-09-30T06:26:05;7.70;99.90
15765;DHT22;7983;50.744;7.086;2022-09-30T06:28:36;7.70;99.90
15765;DHT22;7983;50.744;7.086;2022-09-30T06:31:03;7.70;99.90
15765;DHT22;7983;50.744;7.086;2022-09-30T06:33:29;7.70;99.90
15765;DHT22;7983;50.744;7.086;2022-09-30T06:35:56;7.70;99.90
15765;DHT22;7983;50.744;7.086;2022-09-30T06:38:22;7.80;99.90
15765;DHT22;7983;50.744;7.086;2022-09-30T06:40:48;7.80;99.90
15765;DHT22;7983;50.744;7.086;2022-09-30T06:43:18;7.80;99.90
15765;DHT22;7983;50.744;7.086;2022-09-30T06:45:47;7.80;99.90
15765;DHT22;7983;50.744;7.086;2022-09-30T06:48:16;7.80;99.90
15765;DHT22;7983;50.744;7.086;2022-09-30T06:50:44;7.80;99.90
15765;DHT22;7983;50.744;7.086;2022-09-30T06:53:13;7.80;99.90
15765;DHT22;7983;50.744;7.086;2022-09-30T06:55:44;7.80;99.90
15765;DHT22;7983;50.744;7.086;2022-09-30T06:58:13;7.90;99.90
15765;DHT22;7983;50.744;7.086;2022-09-30T07:00:39;7.90;99.90
15765;DHT22;7983;50.744;7.086;2022-09-30T07:03:08;7.90;99.90
15765;DHT22;7983;50.744;7.086;2022-09-30T07:05:40;7.90;99.90
15765;DHT22;7983;50.744;7.086;2022-09-30T07:08:05;8.00;99.90
15765;DHT22;7983;50.744;7.086;2022-09-30T07:10:33;8.00;99.90
15765;DHT22;7983;50.744;7.086;2022-09-30T07:12:59;8.00;99.90
15765;DHT22;7983;50.744;7.086;2022-09-30T07:15:26;8.10;99.90
15765;DHT22;7983;50.744;7.086;2022-09-30T07:17:53;8.20;99.90
15765;DHT22;7983;50.744;7.086;2022-09-30T07:20:19;8.20;99.90
15765;DHT22;7983;50.744;7.086;2022-09-30T07:22:45;8.20;99.90
15765;DHT22;7983;50.744;7.086;2022-09-30T07:25:13;8.30;99.90
15765;DHT22;7983;50.744;7.086;2022-09-30T07:27:41;8.40;99.90
15765;DHT22;7983;50.744;7.086;2022-09-30T07:30:07;8.30;99.90
15765;DHT22;7983;50.744;7.086;2022-09-30T07:32:36;8.40;99.90
15765;DHT22;7983;50.744;7.086;2022-09-30T07:35:02;8.50;99.90
15765;DHT22;7983;50.744;7.086;2022-09-30T07:37:28;8.50;99.90
15765;DHT22;7983;50.744;7.086;2022-09-30T07:39:57;8.60;99.90
15765;DHT22;7983;50.744;7.086;2022-09-30T07:42:23;8.60;99.90
15765;DHT22;7983;50.744;7.086;2022-09-30T07:44:51;8.70;99.90
15765;DHT22;7983;50.744;7.086;2022-09-30T07:47:18;8.70;99.90
15765;DHT22;7983;50.744;7.086;2022-09-30T07:49:44;8.80;99.90
15765;DHT22;7983;50.744;7.086;2022-09-30T07:52:13;8.80;99.90
15765;DHT22;7983;50.744;7.086;2022-09-30T07:54:41;8.90;99.90
15765;DHT22;7983;50.744;7.086;2022-09-30T07:57:09;9.00;99.90
15765;DHT22;7983;50.744;7.086;2022-09-30T07:59:39;9.10;99.90
15765;DHT22;7983;50.744;7.086;2022-09-30T08:02:12;9.10;99.90
15765;DHT22;7983;50.744;7.086;2022-09-30T08:04:39;9.20;99.90
15765;DHT22;7983;50.744;7.086;2022-09-30T08:07:04;9.30;99.90
15765;DHT22;7983;50.744;7.086;2022-09-30T08:09:33;9.40;99.90
15765;DHT22;7983;50.744;7.086;2022-09-30T08:12:04;9.50;99.90
15765;DHT22;7983;50.744;7.086;2022-09-30T08:14:29;9.50;99.90
15765;DHT22;7983;50.744;7.086;2022-09-30T08:16:55;9.60;99.90
15765;DHT22;7983;50.744;7.086;2022-09-30T08:19:24;9.70;99.90
15765;DHT22;7983;50.744;7.086;2022-09-30T08:21:50;9.80;99.90
15765;DHT22;7983;50.744;7.086;2022-09-30T08:24:19;9.80;99.90
15765;DHT22;7983;50.744;7.086;2022-09-30T08:26:47;9.90;99.90
15765;DHT22;7983;50.744;7.086;2022-09-30T08:29:13;10.00;99.90
15765;DHT22;7983;50.744;7.086;2022-09-30T08:31:42;10.10;99.90
15765;DHT22;7983;50.744;7.086;2022-09-30T08:34:10;10.10;99.90
15765;DHT22;7983;50.744;7.086;2022-09-30T08:36:39;10.20;99.90
15765;DHT22;7983;50.744;7.086;2022-09-30T08:39:04;10.30;99.90
15765;DHT22;7983;50.744;7.086;2022-09-30T08:41:44;10.40;99.90
15765;DHT22;7983;50.744;7.086;2022-09-30T08:44:40;10.50;99.90
15765;DHT22;7983;50.744;7.086;2022-09-30T08:52:42;10.80;99.90
15765;DHT22;7983;50.744;7.086;2022-09-30T08:55:38;10.90;99.90
15765;DHT22;7983;50.744;7.086;2022-09-30T08:58:01;11.00;99.90
15765;DHT22;7983;50.744;7.086;2022-09-30T09:00:32;11.10;99.90
15765;DHT22;7983;50.744;7.086;2022-09-30T09:03:02;11.10;99.90
15765;DHT22;7983;50.744;7.086;2022-09-30T09:06:32;11.30;99.90
15765;DHT22;7983;50.744;7.086;2022-09-30T09:11:46;11.50;99.90
15765;DHT22;7983;50.744;7.086;2022-09-30T09:20:21;11.90;99.90
15765;DHT22;7983;50.744;7.086;2022-09-30T09:22:50;12.00;99.90
15765;DHT22;7983;50.744;7.086;2022-09-30T09:25:25;12.10;99.90
15765;DHT22;7983;50.744;7.086;2022-09-30T09:27:59;12.60;99.90
15765;DHT22;7983;50.744;7.086;2022-09-30T09:30:29;13.30;99.90
15765;DHT22;7983;50.744;7.086;2022-09-30T09:35:57;15.00;99.90
15765;DHT22;7983;50.744;7.086;2022-09-30T09:43:48;17.30;99.90
15765;DHT22;7983;50.744;7.086;2022-09-30T09:46:25;17.80;99.90
15765;DHT22;7983;50.744;7.086;2022-09-30T09:54:43;19.30;99.90
15765;DHT22;7983;50.744;7.086;2022-09-30T09:57:12;19.70;99.90
15765;DHT22;7983;50.744;7.086;2022-09-30T10:00:04;20.00;99.90
15765;DHT22;7983;50.744;7.086;2022-09-30T10:03:13;20.30;99.90
15765;DHT22;7983;50.744;7.086;2022-09-30T10:05:57;20.60;99.90
15765;DHT22;7983;50.744;7.086;2022-09-30T10:08:24;20.90;99.90
15765;DHT22;7983;50.744;7.086;2022-09-30T10:11:22;21.10;99.90
15765;DHT22;7983;50.744;7.086;2022-09-30T10:13:48;21.30;99.90
15765;DHT22;7983;50.744;7.086;2022-09-30T10:16:27;21.40;99.90
15765;DHT22;7983;50.744;7.086;2022-09-30T10:18:55;21.50;99.90
15765;DHT22;7983;50.744;7.086;2022-09-30T10:21:24;21.60;99.90
15765;DHT22;7983;50.744;7.086;2022-09-30T10:23:50;21.70;99.90
15765;DHT22;7983;50.744;7.086;2022-09-30T10:26:23;21.80;99.90
15765;DHT22;7983;50.744;7.086;2022-09-30T10:33:58;22.20;99.90
15765;DHT22;7983;50.744;7.086;2022-09-30T10:36:32;22.30;99.90
15765;DHT22;7983;50.744;7.086;2022-09-30T10:39:17;22.50;99.90
15765;DHT22;7983;50.744;7.086;2022-09-30T10:41:43;22.50;99.90
15765;DHT22;7983;50.744;7.086;2022-09-30T10:44:18;22.60;99.90
15765;DHT22;7983;50.744;7.086;2022-09-30T10:46:49;22.60;99.90
15765;DHT22;7983;50.744;7.086;2022-09-30T10:52:00;22.70;99.90
15765;DHT22;7983;50.744;7.086;2022-09-30T10:54:48;22.70;99.90
15765;DHT22;7983;50.744;7.086;2022-09-30T10:57:18;22.80;99.90
15765;DHT22;7983;50.744;7.086;2022-09-30T10:59:44;22.90;99.90
15765;DHT22;7983;50.744;7.086;2022-09-30T11:08:18;22.40;99.90
15765;DHT22;7983;50.744;7.086;2022-09-30T11:11:11;22.00;99.90
15765;DHT22;7983;50.744;7.086;2022-09-30T11:13:51;21.80;99.90
15765;DHT22;7983;50.744;7.086;2022-09-30T11:16:34;21.50;99.90
15765;DHT22;7983;50.744;7.086;2022-09-30T11:19:08;21.20;99.90
15765;DHT22;7983;50.744;7.086;2022-09-30T11:29:42;20.10;99.90
15765;DHT22;7983;50.744;7.086;2022-09-30T11:35:03;20.30;99.90
15765;DHT22;7983;50.744;7.086;2022-09-30T11:37:58;20.30;99.90
15765;DHT22;7983;50.744;7.086;2022-09-30T11:43:38;20.10;99.90
15765;DHT22;7983;50.744;7.086;2022-09-30T11:54:54;19.90;99.90
15765;DHT22;7983;50.744;7.086;2022-09-30T11:57:32;20.10;99.90
15765;DHT22;7983;50.744;7.086;2022-09-30T12:00:15;20.40;99.90
15765;DHT22;7983;50.744;7.086;2022-09-30T12:02:54;20.70;99.90
15765;DHT22;7983;50.744;7.086;2022-09-30T12:05:39;20.80;99.90
15765;DHT22;7983;50.744;7.086;2022-09-30T12:08:14;20.80;99.90
15765;DHT22;7983;50.744;7.086;2022-09-30T12:10:53;20.60;99.90
15765;DHT22;7983;50.744;7.086;2022-09-30T12:13:23;20.40;99.90
15765;DHT22;7983;50.744;7.086;2022-09-30T12:15:55;20.40;99.90
15765;DHT22;7983;50.744;7.086;2022-09-30T12:18:31;20.40;99.90
15765;DHT22;7983;50.744;7.086;2022-09-30T12:26:54;20.50;99.90
15765;DHT22;7983;50.744;7.086;2022-09-30T12:29:22;20.40;99.90
15765;DHT22;7983;50.744;7.086;2022-09-30T12:43:32;20.90;99.90
15765;DHT22;7983;50.744;7.086;2022-09-30T12:49:03;21.20;99.90
15765;DHT22;7983;50.744;7.086;2022-09-30T12:51:40;21.20;99.90
15765;DHT22;7983;50.744;7.086;2022-09-30T12:54:23;21.20;99.90
15765;DHT22;7983;50.744;7.086;2022-09-30T12:56:57;21.20;99.90
15765;DHT22;7983;50.744;7.086;2022-09-30T12:59:28;21.20;99.90
15765;DHT22;7983;50.744;7.086;2022-09-30T13:01:56;21.30;99.90
15765;DHT22;7983;50.744;7.086;2022-09-30T13:04:29;21.20;99.90
15765;DHT22;7983;50.744;7.086;2022-09-30T13:09:37;21.20;99.90
15765;DHT22;7983;50.744;7.086;2022-09-30T13:12:50;21.20;99.90
15765;DHT22;7983;50.744;7.086;2022-09-30T13:23:54;20.90;99.90
15765;DHT22;7983;50.744;7.086;2022-09-30T13:26:32;20.90;99.90
15765;DHT22;7983;50.744;7.086;2022-09-30T13:31:25;21.10;99.90
15765;DHT22;7983;50.744;7.086;2022-09-30T13:39:28;21.50;99.90
15765;DHT22;7983;50.744;7.086;2022-09-30T13:42:20;21.60;99.90
15765;DHT22;7983;50.744;7.086;2022-09-30T13:45:16;21.60;99.90
15765;DHT22;7983;50.744;7.086;2022-09-30T13:48:00;21.50;99.90
15765;DHT22;7983;50.744;7.086;2022-09-30T13:50:37;21.40;99.90
15765;DHT22;7983;50.744;7.086;2022-09-30T13:53:18;21.50;99.90
15765;DHT22;7983;50.744;7.086;2022-09-30T13:55:50;21.60;99.90
15765;DHT22;7983;50.744;7.086;2022-09-30T14:17:37;20.60;99.90
15765;DHT22;7983;50.744;7.086;2022-09-30T14:22:34;20.40;99.90
15765;DHT22;7983;50.744;7.086;2022-09-30T14:25:00;20.50;99.90
15765;DHT22;7983;50.744;7.086;2022-09-30T14:27:54;20.70;99.90
15765;DHT22;7983;50.744;7.086;2022-09-30T14:30:25;20.80;99.90
15765;DHT22;7983;50.744;7.086;2022-09-30T14:32:55;21.00;99.90
15765;DHT22;7983;50.744;7.086;2022-09-30T14:35:29;21.10;99.90
15765;DHT22;7983;50.744;7.086;2022-09-30T14:40:35;20.90;99.90
15765;DHT22;7983;50.744;7.086;2022-09-30T14:43:06;20.80;99.90
15765;DHT22;7983;50.744;7.086;2022-09-30T14:45:37;20.70;99.90
15765;DHT22;7983;50.744;7.086;2022-09-30T14:48:30;20.60;99.90
15765;DHT22;7983;50.744;7.086;2022-09-30T14:51:02;20.70;99.90
15765;DHT22;7983;50.744;7.086;2022-09-30T14:53:32;20.80;99.90
15765;DHT22;7983;50.744;7.086;2022-09-30T14:55:58;20.90;99.90
15765;DHT22;7983;50.744;7.086;2022-09-30T14:58:29;21.00;99.90
15765;DHT22;7983;50.744;7.086;2022-09-30T15:01:09;21.10;99.90
15765;DHT22;7983;50.744;7.086;2022-09-30T15:03:42;21.10;99.90
15765;DHT22;7983;50.744;7.086;2022-09-30T15:06:36;21.10;99.90
15765;DHT22;7983;50.744;7.086;2022-09-30T15:09:26;21.00;99.90
15765;DHT22;7983;50.744;7.086;2022-09-30T15:11:53;21.00;99.90
15765;DHT22;7983;50.744;7.086;2022-09-30T15:14:21;21.00;99.90
15765;DHT22;7983;50.744;7.086;2022-09-30T15:16:53;21.00;99.90
15765;DHT22;7983;50.744;7.086;2022-09-30T15:19:27;21.00;99.90
15765;DHT22;7983;50.744;7.086;2022-09-30T15:21:56;21.00;99.90
15765;DHT22;7983;50.744;7.086;2022-09-30T15:24:24;21.00;99.90
15765;DHT22;7983;50.744;7.086;2022-09-30T15:26:54;21.00;99.90
15765;DHT22;7983;50.744;7.086;2022-09-30T15:29:22;21.00;99.90
15765;DHT22;7983;50.744;7.086;2022-09-30T15:31:59;21.00;99.90
15765;DHT22;7983;50.744;7.086;2022-09-30T15:34:28;20.90;99.90
15765;DHT22;7983;50.744;7.086;2022-09-30T15:36:59;20.80;99.90
15765;DHT22;7983;50.744;7.086;2022-09-30T15:39:32;20.70;99.90
15765;DHT22;7983;50.744;7.086;2022-09-30T15:42:37;20.70;99.90
15765;DHT22;7983;50.744;7.086;2022-09-30T15:45:32;20.60;99.90
15765;DHT22;7983;50.744;7.086;2022-09-30T15:50:47;20.40;99.90
15765;DHT22;7983;50.744;7.086;2022-09-30T15:55:54;20.40;99.90
15765;DHT22;7983;50.744;7.086;2022-09-30T16:01:16;20.30;99.90
15765;DHT22;7983;50.744;7.086;2022-09-30T16:04:48;20.30;99.90
15765;DHT22;7983;50.744;7.086;2022-09-30T16:14:45;20.40;99.90
15765;DHT22;7983;50.744;7.086;2022-09-30T16:17:31;20.40;99.90
15765;DHT22;7983;50.744;7.086;2022-09-30T16:20:02;20.40;99.90
15765;DHT22;7983;50.744;7.086;2022-09-30T16:22:53;20.40;99.90
15765;DHT22;7983;50.744;7.086;2022-09-30T16:28:01;20.30;99.90
15765;DHT22;7983;50.744;7.086;2022-09-30T16:30:36;20.20;99.90
15765;DHT22;7983;50.744;7.086;2022-09-30T16:33:05;20.10;99.90
15765;DHT22;7983;50.744;7.086;2022-09-30T16:35:33;20.00;99.90
15765;DHT22;7983;50.744;7.086;2022-09-30T16:38:05;19.90;99.90
15765;DHT22;7983;50.744;7.086;2022-09-30T16:40:34;19.80;99.90
15765;DHT22;7983;50.744;7.086;2022-09-30T16:43:06;19.60;99.90
15765;DHT22;7983;50.744;7.086;2022-09-30T16:45:34;19.50;99.90
15765;DHT22;7983;50.744;7.086;2022-09-30T16:48:01;19.40;99.90
15765;DHT22;7983;50.744;7.086;2022-09-30T16:50:39;19.30;99.90
15765;DHT22;7983;50.744;7.086;2022-09-30T16:53:08;19.20;99.90
15765;DHT22;7983;50.744;7.086;2022-09-30T16:55:35;19.10;99.90
15765;DHT22;7983;50.744;7.086;2022-09-30T16:58:05;19.00;99.90
15765;DHT22;7983;50.744;7.086;2022-09-30T17:00:33;18.80;99.90
15765;DHT22;7983;50.744;7.086;2022-09-30T17:03:01;18.70;99.90
15765;DHT22;7983;50.744;7.086;2022-09-30T17:05:29;18.60;99.90
15765;DHT22;7983;50.744;7.086;2022-09-30T17:07:57;18.50;99.90
15765;DHT22;7983;50.744;7.086;2022-09-30T17:10:31;18.40;99.90
15765;DHT22;7983;50.744;7.086;2022-09-30T17:12:59;18.30;99.90
15765;DHT22;7983;50.744;7.086;2022-09-30T17:15:26;18.20;99.90
15765;DHT22;7983;50.744;7.086;2022-09-30T17:17:54;18.20;99.90
15765;DHT22;7983;50.744;7.086;2022-09-30T17:20:21;18.10;99.90
15765;DHT22;7983;50.744;7.086;2022-09-30T17:22:47;18.00;99.90
15765;DHT22;7983;50.744;7.086;2022-09-30T17:25:14;17.90;99.90
15765;DHT22;7983;50.744;7.086;2022-09-30T17:27:42;17.80;99.90
15765;DHT22;7983;50.744;7.086;2022-09-30T17:30:08;17.70;99.90
15765;DHT22;7983;50.744;7.086;2022-09-30T17:32:35;17.60;99.90
15765;DHT22;7983;50.744;7.086;2022-09-30T17:35:06;17.50;99.90
15765;DHT22;7983;50.744;7.086;2022-09-30T17:37:35;17.50;99.90
15765;DHT22;7983;50.744;7.086;2022-09-30T17:40:02;17.40;99.90
15765;DHT22;7983;50.744;7.086;2022-09-30T17:42:48;17.30;99.90
15765;DHT22;7983;50.744;7.086;2022-09-30T17:45:33;17.20;99.90
15765;DHT22;7983;50.744;7.086;2022-09-30T17:48:01;17.10;99.90
15765;DHT22;7983;50.744;7.086;2022-09-30T17:50:30;17.10;99.90
15765;DHT22;7983;50.744;7.086;2022-09-30T17:52:55;17.00;99.90
15765;DHT22;7983;50.744;7.086;2022-09-30T17:55:23;16.90;99.90
15765;DHT22;7983;50.744;7.086;2022-09-30T17:57:52;16.90;99.90
15765;DHT22;7983;50.744;7.086;2022-09-30T18:00:20;16.80;99.90
15765;DHT22;7983;50.744;7.086;2022-09-30T18:02:46;16.70;99.90
15765;DHT22;7983;50.744;7.086;2022-09-30T18:05:13;16.70;99.90
15765;DHT22;7983;50.744;7.086;2022-09-30T18:07:39;16.60;99.90
15765;DHT22;7983;50.744;7.086;2022-09-30T18:10:08;16.60;99.90
15765;DHT22;7983;50.744;7.086;2022-09-30T18:12:36;16.50;99.90
15765;DHT22;7983;50.744;7.086;2022-09-30T18:15:07;16.40;99.90
15765;DHT22;7983;50.744;7.086;2022-09-30T18:17:35;16.40;99.90
15765;DHT22;7983;50.744;7.086;2022-09-30T18:20:01;16.30;99.90
15765;DHT22;7983;50.744;7.086;2022-09-30T18:22:27;16.30;99.90
15765;DHT22;7983;50.744;7.086;2022-09-30T18:24:53;16.20;99.90
15765;DHT22;7983;50.744;7.086;2022-09-30T18:27:37;16.20;99.90
15765;DHT22;7983;50.744;7.086;2022-09-30T18:30:04;16.10;99.90
15765;DHT22;7983;50.744;7.086;2022-09-30T18:32:32;16.10;99.90
15765;DHT22;7983;50.744;7.086;2022-09-30T18:34:58;16.00;99.90
15765;DHT22;7983;50.744;7.086;2022-09-30T18:37:27;16.00;99.90
15765;DHT22;7983;50.744;7.086;2022-09-30T18:39:57;15.90;99.90
15765;DHT22;7983;50.744;7.086;2022-09-30T18:42:23;15.90;99.90
15765;DHT22;7983;50.744;7.086;2022-09-30T18:44:51;15.80;99.90
15765;DHT22;7983;50.744;7.086;2022-09-30T18:47:17;15.80;99.90
15765;DHT22;7983;50.744;7.086;2022-09-30T18:49:44;15.70;99.90
15765;DHT22;7983;50.744;7.086;2022-09-30T18:52:09;15.70;99.90
15765;DHT22;7983;50.744;7.086;2022-09-30T18:54:38;15.70;99.90
15765;DHT22;7983;50.744;7.086;2022-09-30T18:57:03;15.60;99.90
15765;DHT22;7983;50.744;7.086;2022-09-30T18:59:29;15.60;99.90
15765;DHT22;7983;50.744;7.086;2022-09-30T19:01:55;15.50;99.90
15765;DHT22;7983;50.744;7.086;2022-09-30T19:04:22;15.50;99.90
15765;DHT22;7983;50.744;7.086;2022-09-30T19:06:50;15.50;99.90
15765;DHT22;7983;50.744;7.086;2022-09-30T19:09:17;15.40;99.90
15765;DHT22;7983;50.744;7.086;2022-09-30T19:11:43;15.40;99.90
15765;DHT22;7983;50.744;7.086;2022-09-30T19:14:14;15.30;99.90
15765;DHT22;7983;50.744;7.086;2022-09-30T19:16:40;15.30;99.90
15765;DHT22;7983;50.744;7.086;2022-09-30T19:19:08;15.20;99.90
15765;DHT22;7983;50.744;7.086;2022-09-30T19:21:38;15.20;99.90
15765;DHT22;7983;50.744;7.086;2022-09-30T19:24:05;15.10;99.90
15765;DHT22;7983;50.744;7.086;2022-09-30T19:26:36;15.00;99.90
15765;DHT22;7983;50.744;7.086;2022-09-30T19:29:05;15.00;99.90
15765;DHT22;7983;50.744;7.086;2022-09-30T19:31:32;14.90;99.90
15765;DHT22;7983;50.744;7.086;2022-09-30T19:34:00;14.80;99.90
15765;DHT22;7983;50.744;7.086;2022-09-30T19:36:27;14.80;99.90
15765;DHT22;7983;50.744;7.086;2022-09-30T19:38:53;14.70;99.90
15765;DHT22;7983;50.744;7.086;2022-09-30T19:41:26;14.60;99.90
15765;DHT22;7983;50.744;7.086;2022-09-30T19:43:56;14.60;99.90
15765;DHT22;7983;50.744;7.086;2022-09-30T19:46:27;14.60;99.90
15765;DHT22;7983;50.744;7.086;2022-09-30T19:48:53;14.50;99.90